Flight Track Log - Related Links

Times and Time Zones

All times are in EDT time to prevent confusion due to time zone crossing. See the UAL4274 flight status page for this flight to view local times or setup timezone preferences in your user account.


Time Position Orientation Groundspeed Altitude Reporting Facility
EDT Latitude Longitude Course Direction KTS MPH feet Rate Location/Type
Thu 02:54:51 PM 29.9781 -95.3392 225° Southwest 166 191 700  Level Houston Center
Thu 02:55:28 PM 29.9572 -95.3633 225° Southwest 214 246 1,700 2,175 Climbing Houston Center
Thu 02:56:11 PM 29.9208 -95.3456 157° South 229 264 3,600 2,262 Climbing Houston Center
Thu 02:56:29 PM 29.9089 -95.3186 117° Southeast 248 285 4,000 581 Climbing Houston Center
Thu 02:57:13 PM 29.8933 -95.2692 110° East 261 300 4,200 1,522 Climbing Houston Center
Thu 02:57:36 PM 29.8800 -95.2331 113° Southeast 265 305 5,700 2,571 Climbing Houston Center
Thu 02:58:16 PM 29.8672 -95.1889 108° East 264 304 6,900 2,361 Climbing Houston Center
Thu 02:58:37 PM 29.8556 -95.1492 109° East 284 327 8,100 2,516 Climbing Houston Center
Thu 02:59:18 PM 29.8517 -95.0978 95° East 286 329 9,500 2,039 Climbing Houston Center
Thu 03:00:20 PM 29.8525 -95.0006 89° East 299 344 11,600 1,790 Climbing Houston Center
Thu 03:01:22 PM 29.8550 -94.8956 88° East 321 369 13,200 1,500 Climbing Houston Center
Thu 03:02:24 PM 29.8567 -94.7597 89° East 351 404 14,700 1,645 Climbing Houston Center
Thu 03:03:26 PM 29.8639 -94.6389 86° East 374 430 16,600 1,887 Climbing Houston Center
Thu 03:04:28 PM 29.8622 -94.5217 91° East 367 422 18,600 1,680 Climbing Houston Center
Thu 03:05:31 PM 29.8614 -94.4050 90° East 366 421 20,100 1,200 Climbing Houston Center
Thu 03:06:33 PM 29.8614 -94.2803 90° East 388 447 21,100 968 Climbing Houston Center
Thu 03:07:35 PM 29.8567 -94.1492 92° East 408 470 22,100 919 Climbing Houston Center
Thu 03:08:37 PM 29.8583 -93.9872 89° East 426 490 23,000 435 Climbing Houston Center
Thu 03:09:39 PM 29.8744 -93.8406 83° East 459 528 23,000  Level Houston Center
Thu 03:10:41 PM 29.8908 -93.6850 83° East 490 564 23,000 677 Level Houston Center
Thu 03:11:43 PM 29.9058 -93.5292 84° East 493 567 24,400 1,536 Climbing Houston Center
Thu 03:12:46 PM 29.9203 -93.3803 84° East 476 548 26,200 1,248 Climbing Houston Center
Thu 03:13:48 PM 29.9381 -93.2253 82° East 457 526 27,000 387 Climbing Houston Center
Thu 03:14:50 PM 29.9542 -93.0697 83° East 491 565 27,000 581 Level Houston Center
Thu 03:15:52 PM 29.9736 -92.8783 83° East 504 580 28,200 1,306 Climbing Houston Center
Thu 03:16:54 PM 29.9844 -92.7250 85° East 486 559 29,700 1,306 Climbing Houston Center
Thu 03:17:56 PM 29.9967 -92.5750 85° East 474 545 30,900 1,065 Climbing Houston Center
Thu 03:18:58 PM 30.0086 -92.4247 85° East 474 545 31,900 960 Climbing Houston Center
Thu 03:20:01 PM 30.0203 -92.2722 85° East 477 549 32,900 1,056 Climbing Houston Center
Thu 03:21:03 PM 30.0342 -92.0886 85° East 480 552 34,100 919 Climbing Houston Center
Thu 03:22:05 PM 30.0469 -91.9353 84° East 482 555 34,800 435 Climbing Houston Center
Thu 03:23:07 PM 30.0575 -91.7772 86° East 491 565 35,000 97 Climbing Houston Center
Thu 03:24:09 PM 30.0736 -91.5989 84° East 508 585 35,000  Level Houston Center
Thu 03:25:12 PM 30.0833 -91.4314 86° East 521 600 35,000 -48 Level Houston Center
Thu 03:26:13 PM 30.0950 -91.2656 85° East 519 597 34,900  Descending Houston Center
Thu 03:27:16 PM 30.1061 -91.1036 85° East 512 589 35,000 48 Climbing Houston Center
Thu 03:28:18 PM 30.1197 -90.9406 84° East 511 588 35,000  Level Houston Center
Thu 03:29:20 PM 30.1578 -90.7853 74° East 505 581 35,000  Level Houston Center
Thu 03:30:22 PM 30.2036 -90.5992 74° East 502 578 35,000  Level Houston Center
Thu 03:31:24 PM 30.2414 -90.4442 74° East 502 578 35,000  Level Houston Center
Thu 03:32:26 PM 30.2789 -90.2881 74° East 505 581 35,000  Level Houston Center
Thu 03:33:28 PM 30.3161 -90.1308 75° East 507 583 35,000  Level Houston Center
Thu 03:34:30 PM 30.3539 -89.9717 75° East 512 589 35,000  Level Houston Center
Thu 03:35:33 PM 30.3967 -89.7917 75° East 511 588 35,000  Level Houston Center
Thu 03:36:35 PM 30.4319 -89.6428 75° East 510 587 35,000  Level Houston Center
Thu 03:37:37 PM 30.4683 -89.4861 75° East 506 582 35,000  Level Houston Center
Thu 03:38:39 PM 30.5114 -89.3014 75° East 497 572 35,000 677 Level Houston Center
Thu 03:39:41 PM 30.5444 -89.1475 76° East 493 567 36,400 968 Climbing Houston Center
Thu 03:40:43 PM 30.5792 -89.0014 75° East 474 545 37,000 290 Climbing Houston Center
Thu 03:41:45 PM 30.6144 -88.8425 75° East 486 559 37,000  Level Houston Center
Thu 03:42:48 PM 30.6492 -88.6892 75° East 493 567 37,000  Level Houston Center
Thu 03:43:50 PM 30.6839 -88.5367 75° East 491 565 37,000  Level Houston Center
Thu 03:44:52 PM 30.7228 -88.3589 76° East 488 562 37,000 -48 Level Houston Center
Thu 03:45:54 PM 30.7342 -88.2011 85° East 489 563 36,900  Descending Houston Center
Thu 03:46:56 PM 30.7442 -88.0436 86° East 489 563 37,000 48 Climbing Houston Center
Thu 03:47:58 PM 30.7550 -87.8844 85° East 494 568 37,000  Level Houston Center
Thu 03:48:43 PM 30.7622 -87.7611 86° East 494 568 37,000  Level Jacksonville Center
Thu 03:49:43 PM 30.7725 -87.5997 86° East 494 568 37,000  Level Jacksonville Center
Thu 03:50:43 PM 30.7822 -87.4431 86° East 489 563 37,000  Level Jacksonville Center
Thu 03:51:43 PM 30.7917 -87.2911 86° East 466 536 37,000  Level Jacksonville Center
Thu 03:52:43 PM 30.8011 -87.1369 86° East 466 536 37,000  Level Jacksonville Center
Thu 03:53:43 PM 30.8103 -86.9872 86° East 466 536 37,000  Level Jacksonville Center
Thu 03:54:43 PM 30.8192 -86.8353 86° East 466 536 37,000  Level Jacksonville Center
Thu 03:55:43 PM 30.8244 -86.6639 88° East 472 543 37,000  Level Jacksonville Center
Thu 03:56:43 PM 30.8208 -86.5039 91° East 478 550 37,000  Level Jacksonville Center
Thu 03:57:43 PM 30.8189 -86.3467 91° East 484 557 37,000  Level Jacksonville Center
Thu 03:58:43 PM 30.8147 -86.1894 92° East 484 557 37,000  Level Jacksonville Center
Thu 03:59:43 PM 30.8122 -86.0344 91° East 478 550 37,000  Level Jacksonville Center
Thu 04:00:43 PM 30.8097 -85.8797 91° East 478 550 37,000  Level Jacksonville Center
Thu 04:01:43 PM 30.8072 -85.7225 91° East 478 550 37,000  Level Jacksonville Center
Thu 04:02:43 PM 30.8022 -85.5625 92° East 483 556 37,000  Level Jacksonville Center
Thu 04:03:43 PM 30.7989 -85.4222 92° East 483 556 37,000  Level Jacksonville Center
Thu 04:04:43 PM 30.7956 -85.2650 91° East 483 556 37,000  Level Jacksonville Center
Thu 04:05:43 PM 30.7692 -85.1097 101° East 483 556 37,000  Level Jacksonville Center
Thu 04:06:43 PM 30.6814 -84.9892 130° Southeast 458 527 37,000  Level Jacksonville Center
Thu 04:07:43 PM 30.5894 -84.8689 132° Southeast 474 545 37,000  Level Jacksonville Center
Thu 04:08:43 PM 30.4931 -84.7489 133° Southeast 496 571 37,000  Level Jacksonville Center
Thu 04:09:43 PM 30.3989 -84.6267 132° Southeast 502 578 37,000  Level Jacksonville Center
Thu 04:10:43 PM 30.3044 -84.5069 132° Southeast 502 578 37,000 -50 Level Jacksonville Center
Thu 04:11:43 PM 30.2097 -84.3878 133° Southeast 502 578 36,900 -350 Descending Jacksonville Center
Thu 04:12:43 PM 30.1172 -84.2661 131° Southeast 502 578 36,300 -950 Descending Jacksonville Center
Thu 04:13:43 PM 30.0222 -84.1544 134° Southeast 495 570 35,000 -650 Descending Jacksonville Center
Thu 04:14:43 PM 29.9275 -84.0308 131° Southeast 500 575 35,000  Level Jacksonville Center
Thu 04:15:43 PM 29.8303 -83.9125 133° Southeast 505 581 35,000  Level Jacksonville Center
Thu 04:16:43 PM 29.7097 -83.8275 149° Southeast 499 574 35,000  Level Jacksonville Center
Thu 04:17:43 PM 29.5872 -83.7475 150° Southeast 504 580 35,000  Level Jacksonville Center
Thu 04:18:43 PM 29.4644 -83.6703 151° Southeast 509 586 35,000  Level Jacksonville Center
Thu 04:19:43 PM 29.3397 -83.5881 150° Southeast 509 586 35,000  Level Jacksonville Center
Thu 04:20:43 PM 29.2150 -83.5089 151° Southeast 509 586 35,000 -50 Level Jacksonville Center
Thu 04:21:43 PM 29.0922 -83.4297 151° Southeast 509 586 34,900  Descending Jacksonville Center
Thu 04:22:43 PM 28.9672 -83.3531 152° Southeast 509 586 35,000 -150 Climbing Jacksonville Center
Thu 04:23:43 PM 28.8339 -83.2956 159° South 509 586 34,600 -750 Descending Jacksonville Center
Thu 04:24:43 PM 28.7025 -83.2475 162° South 504 580 33,500 -1,100 Descending Jacksonville Center
Thu 04:25:43 PM 28.5689 -83.1997 163° South 504 580 32,400 -1,330 Descending Jacksonville Center
Thu 04:27:39 PM 28.2900 -83.1008 163° South 510 587 29,600 -1,773 Descending Miami Center
Thu 04:28:39 PM 28.1544 -83.0511 162° South 510 587 27,200 -1,300 Descending Miami Center
Thu 04:29:39 PM 28.0214 -82.9967 160° South 510 587 27,000 -100 Descending Miami Center
Thu 04:30:39 PM 27.8969 -82.9267 154° Southeast 510 587 27,000 -100 Level Miami Center
Thu 04:31:39 PM 27.7711 -82.8497 152° Southeast 510 587 26,800 -350 Descending Miami Center
Thu 04:32:39 PM 27.6467 -82.7797 154° Southeast 511 588 26,300 -550 Descending Miami Center
Thu 04:33:39 PM 27.5244 -82.7081 153° Southeast 497 572 25,700 -1,100 Descending Miami Center
Thu 04:34:39 PM 27.4183 -82.6442 152° Southeast 491 565 24,100 -2,300 Descending Miami Center
Thu 04:35:39 PM 27.2961 -82.5750 153° Southeast 461 531 21,100 -2,550 Descending Miami Center
Thu 04:36:39 PM 27.1919 -82.5139 152° Southeast 443 510 19,000 -1,950 Descending Miami Center
Thu 04:37:39 PM 27.0961 -82.4556 152° Southeast 435 501 17,200 -2,200 Descending Miami Center
Thu 04:38:39 PM 26.9961 -82.3994 153° Southeast 420 483 14,600 -2,400 Descending Miami Center
Thu 04:39:39 PM 26.9022 -82.3461 153° Southeast 399 459 12,400 -1,850 Descending Miami Center
Thu 04:40:39 PM 26.8103 -82.2906 152° Southeast 381 438 10,900 -1,200 Descending Miami Center
Thu 04:41:39 PM 26.7247 -82.2308 148° Southeast 368 423 10,000 -500 Descending Miami Center
Thu 04:42:39 PM 26.6458 -82.1644 143° Southeast 363 418 9,900 -750 Descending Miami Center
Thu 04:43:39 PM 26.5769 -82.1103 145° Southeast 333 383 8,500 -1,750 Descending Miami Center
Thu 04:44:39 PM 26.5181 -82.0614 143° Southeast 293 337 6,400 -1,950 Descending Miami Center
Thu 04:45:39 PM 26.4631 -82.0219 147° Southeast 257 296 4,600 -1,200 Descending Miami Center
Thu 04:46:39 PM 26.4172 -81.9642 132° Southeast 246 283 4,000 -600 Descending Miami Center
Thu 04:48:00 PM 26.4911 -81.8063 50° Northeast  Level FlightAware Approximate
Thu 04:55:00 PM 26.5333 -81.7500 50° Northeast  Level FlightAware Approximate

Login

Don't have an account? Register now (free) for customized features, flight alerts, and more!